sensor_id;sensor_type;location;lat;lon;timestamp;pressure;altitude;pressure_sealevel;temperature
73894;BMP280;62699;50.534;12.784;2023-03-21T00:03:58;96413.47;;;8.20
73894;BMP280;62699;50.534;12.784;2023-03-21T00:08:58;96411.28;;;8.18
73894;BMP280;62699;50.534;12.784;2023-03-21T00:13:58;96411.97;;;8.13
73894;BMP280;62699;50.534;12.784;2023-03-21T00:19:01;96406.31;;;8.11
73894;BMP280;62699;50.534;12.784;2023-03-21T00:24:03;96401.88;;;8.03
73894;BMP280;62699;50.534;12.784;2023-03-21T00:29:04;96399.66;;;8.01
73894;BMP280;62699;50.534;12.784;2023-03-21T00:34:05;96400.59;;;7.98
73894;BMP280;62699;50.534;12.784;2023-03-21T00:39:06;96397.50;;;8.05
73894;BMP280;62699;50.534;12.784;2023-03-21T00:44:06;96400.44;;;8.07
73894;BMP280;62699;50.534;12.784;2023-03-21T00:49:06;96394.81;;;8.05
73894;BMP280;62699;50.534;12.784;2023-03-21T00:54:10;96387.19;;;7.98
73894;BMP280;62699;50.534;12.784;2023-03-21T00:59:11;96391.88;;;8.03
73894;BMP280;62699;50.534;12.784;2023-03-21T01:04:13;96390.84;;;8.01
73894;BMP280;62699;50.534;12.784;2023-03-21T01:09:17;96385.50;;;8.01
73894;BMP280;62699;50.534;12.784;2023-03-21T01:14:20;96389.59;;;7.96
73894;BMP280;62699;50.534;12.784;2023-03-21T01:19:24;96381.72;;;7.87
73894;BMP280;62699;50.534;12.784;2023-03-21T01:24:26;96387.19;;;7.78
73894;BMP280;62699;50.534;12.784;2023-03-21T01:29:26;96385.47;;;7.75
73894;BMP280;62699;50.534;12.784;2023-03-21T01:34:26;96389.09;;;7.72
73894;BMP280;62699;50.534;12.784;2023-03-21T01:39:31;96376.09;;;7.65
73894;BMP280;62699;50.534;12.784;2023-03-21T01:45:00;96381.44;;;7.65
73894;BMP280;62699;50.534;12.784;2023-03-21T01:50:02;96379.97;;;7.64
73894;BMP280;62699;50.534;12.784;2023-03-21T01:55:08;96380.91;;;7.61
73894;BMP280;62699;50.534;12.784;2023-03-21T02:00:12;96368.41;;;7.52
73894;BMP280;62699;50.534;12.784;2023-03-21T02:05:12;96368.47;;;7.43
73894;BMP280;62699;50.534;12.784;2023-03-21T02:10:13;96365.19;;;7.33
73894;BMP280;62699;50.534;12.784;2023-03-21T02:15:15;96360.91;;;7.21
73894;BMP280;62699;50.534;12.784;2023-03-21T02:25:59;96356.41;;;7.13
73894;BMP280;62699;50.534;12.784;2023-03-21T02:31:20;96344.16;;;7.06
73894;BMP280;62699;50.534;12.784;2023-03-21T02:36:42;96348.03;;;7.05
73894;BMP280;62699;50.534;12.784;2023-03-21T02:42:00;96342.91;;;7.01
73894;BMP280;62699;50.534;12.784;2023-03-21T02:47:09;96336.81;;;7.01
73894;BMP280;62699;50.534;12.784;2023-03-21T02:52:14;96340.13;;;6.96
73894;BMP280;62699;50.534;12.784;2023-03-21T02:57:17;96339.38;;;6.95
73894;BMP280;62699;50.534;12.784;2023-03-21T03:02:22;96334.50;;;6.94
73894;BMP280;62699;50.534;12.784;2023-03-21T03:07:49;96337.19;;;6.94
73894;BMP280;62699;50.534;12.784;2023-03-21T03:13:09;96338.13;;;6.91
73894;BMP280;62699;50.534;12.784;2023-03-21T03:18:24;96342.00;;;6.90
73894;BMP280;62699;50.534;12.784;2023-03-21T03:23:47;96350.66;;;6.85
73894;BMP280;62699;50.534;12.784;2023-03-21T03:28:51;96343.81;;;6.84
73894;BMP280;62699;50.534;12.784;2023-03-21T03:33:55;96353.78;;;6.83
73894;BMP280;62699;50.534;12.784;2023-03-21T03:38:56;96350.88;;;6.81
73894;BMP280;62699;50.534;12.784;2023-03-21T03:43:58;96348.91;;;6.82
73894;BMP280;62699;50.534;12.784;2023-03-21T03:49:13;96350.38;;;6.83
73894;BMP280;62699;50.534;12.784;2023-03-21T03:54:18;96361.59;;;6.81
73894;BMP280;62699;50.534;12.784;2023-03-21T03:59:20;96356.94;;;6.82
73894;BMP280;62699;50.534;12.784;2023-03-21T04:04:24;96366.72;;;6.85
73894;BMP280;62699;50.534;12.784;2023-03-21T04:09:28;96366.09;;;6.90
73894;BMP280;62699;50.534;12.784;2023-03-21T04:14:29;96359.13;;;6.83
73894;BMP280;62699;50.534;12.784;2023-03-21T04:19:29;96377.88;;;6.83
73894;BMP280;62699;50.534;12.784;2023-03-21T04:24:30;96382.25;;;6.81
73894;BMP280;62699;50.534;12.784;2023-03-21T04:29:32;96378.72;;;6.75
73894;BMP280;62699;50.534;12.784;2023-03-21T04:34:33;96377.25;;;6.74
73894;BMP280;62699;50.534;12.784;2023-03-21T04:39:39;96369.16;;;6.68
73894;BMP280;62699;50.534;12.784;2023-03-21T04:44:40;96375.59;;;6.61
73894;BMP280;62699;50.534;12.784;2023-03-21T04:49:41;96376.53;;;6.58
73894;BMP280;62699;50.534;12.784;2023-03-21T04:54:43;96378.91;;;6.56
73894;BMP280;62699;50.534;12.784;2023-03-21T04:59:44;96365.28;;;6.54
73894;BMP280;62699;50.534;12.784;2023-03-21T05:04:46;96361.88;;;6.54
73894;BMP280;62699;50.534;12.784;2023-03-21T05:09:46;96357.25;;;6.54
73894;BMP280;62699;50.534;12.784;2023-03-21T05:14:46;96358.44;;;6.53
73894;BMP280;62699;50.534;12.784;2023-03-21T05:19:47;96359.47;;;6.56
73894;BMP280;62699;50.534;12.784;2023-03-21T05:24:50;96352.16;;;6.56
73894;BMP280;62699;50.534;12.784;2023-03-21T05:29:50;96356.06;;;6.55
73894;BMP280;62699;50.534;12.784;2023-03-21T05:34:52;96359.72;;;6.58
73894;BMP280;62699;50.534;12.784;2023-03-21T05:39:52;96372.00;;;6.64
73894;BMP280;62699;50.534;12.784;2023-03-21T05:44:54;96358.50;;;6.74
73894;BMP280;62699;50.534;12.784;2023-03-21T05:49:56;96359.88;;;6.84
73894;BMP280;62699;50.534;12.784;2023-03-21T05:54:56;96349.53;;;7.06
73894;BMP280;62699;50.534;12.784;2023-03-21T05:59:57;96348.59;;;7.09
73894;BMP280;62699;50.534;12.784;2023-03-21T06:04:57;96342.84;;;7.16
73894;BMP280;62699;50.534;12.784;2023-03-21T06:09:57;96351.06;;;7.33
73894;BMP280;62699;50.534;12.784;2023-03-21T06:14:59;96349.69;;;7.37
73894;BMP280;62699;50.534;12.784;2023-03-21T06:20:00;96352.22;;;7.67
73894;BMP280;62699;50.534;12.784;2023-03-21T06:25:01;96355.72;;;7.99
73894;BMP280;62699;50.534;12.784;2023-03-21T06:30:03;96352.19;;;8.07
73894;BMP280;62699;50.534;12.784;2023-03-21T06:35:04;96356.06;;;8.06
73894;BMP280;62699;50.534;12.784;2023-03-21T06:40:05;96354.53;;;8.00
73894;BMP280;62699;50.534;12.784;2023-03-21T06:45:07;96350.50;;;9.09
73894;BMP280;62699;50.534;12.784;2023-03-21T06:50:07;96351.66;;;11.86
73894;BMP280;62699;50.534;12.784;2023-03-21T06:55:08;96362.72;;;12.18
73894;BMP280;62699;50.534;12.784;2023-03-21T07:00:10;96354.94;;;10.99
73894;BMP280;62699;50.534;12.784;2023-03-21T07:05:10;96358.38;;;11.00
73894;BMP280;62699;50.534;12.784;2023-03-21T07:10:11;96356.88;;;11.10
73894;BMP280;62699;50.534;12.784;2023-03-21T07:15:11;96360.69;;;12.54
73894;BMP280;62699;50.534;12.784;2023-03-21T07:20:12;96368.22;;;12.61
73894;BMP280;62699;50.534;12.784;2023-03-21T07:25:13;96362.75;;;11.77
73894;BMP280;62699;50.534;12.784;2023-03-21T07:30:14;96381.19;;;12.09
73894;BMP280;62699;50.534;12.784;2023-03-21T07:35:16;96374.16;;;12.30
73894;BMP280;62699;50.534;12.784;2023-03-21T07:40:17;96375.00;;;11.21
73894;BMP280;62699;50.534;12.784;2023-03-21T07:45:17;96374.53;;;11.11
73894;BMP280;62699;50.534;12.784;2023-03-21T07:50:21;96366.97;;;10.09
73894;BMP280;62699;50.534;12.784;2023-03-21T07:55:21;96371.88;;;10.28
73894;BMP280;62699;50.534;12.784;2023-03-21T08:00:21;96363.81;;;10.67
73894;BMP280;62699;50.534;12.784;2023-03-21T08:05:24;96373.09;;;10.27
73894;BMP280;62699;50.534;12.784;2023-03-21T08:10:25;96376.31;;;10.42
73894;BMP280;62699;50.534;12.784;2023-03-21T08:15:26;96365.75;;;10.83
73894;BMP280;62699;50.534;12.784;2023-03-21T08:20:26;96363.41;;;11.42
73894;BMP280;62699;50.534;12.784;2023-03-21T08:25:28;96368.44;;;12.04
73894;BMP280;62699;50.534;12.784;2023-03-21T08:30:29;96361.69;;;12.21
73894;BMP280;62699;50.534;12.784;2023-03-21T08:35:30;96363.91;;;11.82
73894;BMP280;62699;50.534;12.784;2023-03-21T08:40:31;96357.63;;;11.68
73894;BMP280;62699;50.534;12.784;2023-03-21T08:45:31;96369.59;;;11.15
73894;BMP280;62699;50.534;12.784;2023-03-21T08:50:31;96366.66;;;11.24
73894;BMP280;62699;50.534;12.784;2023-03-21T08:55:32;96366.31;;;11.91
73894;BMP280;62699;50.534;12.784;2023-03-21T09:00:33;96367.59;;;11.84
73894;BMP280;62699;50.534;12.784;2023-03-21T09:05:34;96370.97;;;11.90
73894;BMP280;62699;50.534;12.784;2023-03-21T09:10:35;96368.69;;;12.06
73894;BMP280;62699;50.534;12.784;2023-03-21T09:15:35;96367.56;;;12.25
73894;BMP280;62699;50.534;12.784;2023-03-21T09:20:36;96367.91;;;12.70
73894;BMP280;62699;50.534;12.784;2023-03-21T09:25:37;96370.97;;;13.28
73894;BMP280;62699;50.534;12.784;2023-03-21T09:30:37;96364.09;;;13.27
73894;BMP280;62699;50.534;12.784;2023-03-21T09:35:38;96362.38;;;13.30
73894;BMP280;62699;50.534;12.784;2023-03-21T09:41:24;96355.75;;;13.81
73894;BMP280;62699;50.534;12.784;2023-03-21T09:46:42;96347.59;;;13.68
73894;BMP280;62699;50.534;12.784;2023-03-21T09:51:48;96350.38;;;13.95
73894;BMP280;62699;50.534;12.784;2023-03-21T09:56:56;96342.09;;;15.16
73894;BMP280;62699;50.534;12.784;2023-03-21T10:02:01;96342.06;;;15.63
73894;BMP280;62699;50.534;12.784;2023-03-21T10:07:02;96320.50;;;16.20
73894;BMP280;62699;50.534;12.784;2023-03-21T10:12:05;96326.88;;;16.58
73894;BMP280;62699;50.534;12.784;2023-03-21T10:17:30;96313.31;;;16.30
73894;BMP280;62699;50.534;12.784;2023-03-21T10:22:32;96311.59;;;16.48
73894;BMP280;62699;50.534;12.784;2023-03-21T10:27:34;96308.81;;;16.33
73894;BMP280;62699;50.534;12.784;2023-03-21T10:32:37;96296.19;;;16.43
73894;BMP280;62699;50.534;12.784;2023-03-21T10:37:38;96283.44;;;15.60
73894;BMP280;62699;50.534;12.784;2023-03-21T10:42:39;96290.03;;;16.14
73894;BMP280;62699;50.534;12.784;2023-03-21T10:47:41;96284.16;;;16.02
73894;BMP280;62699;50.534;12.784;2023-03-21T10:52:55;96285.63;;;16.11
73894;BMP280;62699;50.534;12.784;2023-03-21T10:58:04;96283.66;;;16.11
73894;BMP280;62699;50.534;12.784;2023-03-21T11:03:31;96277.41;;;15.20
73894;BMP280;62699;50.534;12.784;2023-03-21T11:08:40;96273.88;;;15.12
73894;BMP280;62699;50.534;12.784;2023-03-21T11:13:43;96255.50;;;15.52
73894;BMP280;62699;50.534;12.784;2023-03-21T11:18:49;96257.69;;;16.23
73894;BMP280;62699;50.534;12.784;2023-03-21T11:23:50;96258.16;;;16.14
73894;BMP280;62699;50.534;12.784;2023-03-21T11:28:52;96255.91;;;15.56
73894;BMP280;62699;50.534;12.784;2023-03-21T11:33:54;96248.00;;;15.45
73894;BMP280;62699;50.534;12.784;2023-03-21T11:39:12;96240.25;;;16.19
73894;BMP280;62699;50.534;12.784;2023-03-21T11:44:56;96235.25;;;16.02
73894;BMP280;62699;50.534;12.784;2023-03-21T11:49:56;96228.81;;;15.85
73894;BMP280;62699;50.534;12.784;2023-03-21T12:00:10;96230.59;;;15.82
73894;BMP280;62699;50.534;12.784;2023-03-21T12:05:22;96217.31;;;16.71
73894;BMP280;62699;50.534;12.784;2023-03-21T12:10:31;96218.66;;;16.85
73894;BMP280;62699;50.534;12.784;2023-03-21T12:21:03;96199.59;;;16.34
73894;BMP280;62699;50.534;12.784;2023-03-21T12:26:26;96187.53;;;17.16
73894;BMP280;62699;50.534;12.784;2023-03-21T12:31:56;96185.41;;;16.64
73894;BMP280;62699;50.534;12.784;2023-03-21T12:37:23;96180.13;;;16.58
73894;BMP280;62699;50.534;12.784;2023-03-21T12:42:51;96178.94;;;16.31
73894;BMP280;62699;50.534;12.784;2023-03-21T12:48:10;96177.31;;;16.00
73894;BMP280;62699;50.534;12.784;2023-03-21T12:58:26;96168.06;;;16.31
73894;BMP280;62699;50.534;12.784;2023-03-21T13:08:40;96164.47;;;16.36
73894;BMP280;62699;50.534;12.784;2023-03-21T13:14:10;96161.34;;;16.32
73894;BMP280;62699;50.534;12.784;2023-03-21T13:19:19;96142.75;;;16.44
73894;BMP280;62699;50.534;12.784;2023-03-21T13:24:36;96142.47;;;16.62
73894;BMP280;62699;50.534;12.784;2023-03-21T13:29:44;96145.81;;;16.48
73894;BMP280;62699;50.534;12.784;2023-03-21T13:34:53;96140.06;;;16.08
73894;BMP280;62699;50.534;12.784;2023-03-21T13:40:00;96141.22;;;16.20
73894;BMP280;62699;50.534;12.784;2023-03-21T13:45:06;96141.47;;;16.01
73894;BMP280;62699;50.534;12.784;2023-03-21T13:55:19;96129.34;;;16.02
73894;BMP280;62699;50.534;12.784;2023-03-21T14:00:21;96134.00;;;16.30
73894;BMP280;62699;50.534;12.784;2023-03-21T14:05:25;96121.00;;;16.36
73894;BMP280;62699;50.534;12.784;2023-03-21T14:10:34;96117.81;;;16.17
73894;BMP280;62699;50.534;12.784;2023-03-21T14:15:39;96114.13;;;16.35
73894;BMP280;62699;50.534;12.784;2023-03-21T14:20:41;96112.47;;;15.89
73894;BMP280;62699;50.534;12.784;2023-03-21T14:25:43;96104.03;;;15.71
73894;BMP280;62699;50.534;12.784;2023-03-21T14:30:50;96102.28;;;15.82
73894;BMP280;62699;50.534;12.784;2023-03-21T14:35:51;96098.91;;;15.60
73894;BMP280;62699;50.534;12.784;2023-03-21T14:40:55;96099.19;;;15.49
73894;BMP280;62699;50.534;12.784;2023-03-21T14:45:57;96087.34;;;15.67
73894;BMP280;62699;50.534;12.784;2023-03-21T14:51:06;96088.81;;;15.68
73894;BMP280;62699;50.534;12.784;2023-03-21T14:56:19;96084.59;;;15.88
73894;BMP280;62699;50.534;12.784;2023-03-21T15:01:27;96083.72;;;15.93
73894;BMP280;62699;50.534;12.784;2023-03-21T15:06:28;96082.91;;;15.49
73894;BMP280;62699;50.534;12.784;2023-03-21T15:11:34;96080.78;;;15.55
73894;BMP280;62699;50.534;12.784;2023-03-21T15:16:37;96078.69;;;15.69
73894;BMP280;62699;50.534;12.784;2023-03-21T15:21:40;96071.66;;;15.45
73894;BMP280;62699;50.534;12.784;2023-03-21T15:27:03;96067.25;;;15.14
73894;BMP280;62699;50.534;12.784;2023-03-21T15:32:05;96070.94;;;15.24
73894;BMP280;62699;50.534;12.784;2023-03-21T15:37:13;96074.16;;;14.94
73894;BMP280;62699;50.534;12.784;2023-03-21T15:42:39;96072.38;;;14.97
73894;BMP280;62699;50.534;12.784;2023-03-21T15:47:49;96072.72;;;14.93
73894;BMP280;62699;50.534;12.784;2023-03-21T15:52:51;96061.16;;;14.93
73894;BMP280;62699;50.534;12.784;2023-03-21T15:58:14;96065.72;;;14.77
73894;BMP280;62699;50.534;12.784;2023-03-21T16:03:26;96062.72;;;14.67
73894;BMP280;62699;50.534;12.784;2023-03-21T16:08:32;96057.94;;;14.60
73894;BMP280;62699;50.534;12.784;2023-03-21T16:13:36;96063.59;;;14.49
73894;BMP280;62699;50.534;12.784;2023-03-21T16:18:36;96068.38;;;14.56
73894;BMP280;62699;50.534;12.784;2023-03-21T16:23:38;96071.31;;;14.58
73894;BMP280;62699;50.534;12.784;2023-03-21T16:28:38;96077.38;;;14.51
73894;BMP280;62699;50.534;12.784;2023-03-21T16:33:38;96066.78;;;14.40
73894;BMP280;62699;50.534;12.784;2023-03-21T16:38:38;96077.22;;;14.36
73894;BMP280;62699;50.534;12.784;2023-03-21T16:43:39;96071.25;;;14.24
73894;BMP280;62699;50.534;12.784;2023-03-21T16:48:43;96085.25;;;14.15
73894;BMP280;62699;50.534;12.784;2023-03-21T16:53:46;96084.22;;;14.05
73894;BMP280;62699;50.534;12.784;2023-03-21T16:58:47;96087.84;;;13.95
73894;BMP280;62699;50.534;12.784;2023-03-21T17:03:47;96093.50;;;13.83
73894;BMP280;62699;50.534;12.784;2023-03-21T17:08:50;96091.53;;;13.71
73894;BMP280;62699;50.534;12.784;2023-03-21T17:13:53;96087.78;;;13.61
73894;BMP280;62699;50.534;12.784;2023-03-21T17:18:54;96092.56;;;13.55
73894;BMP280;62699;50.534;12.784;2023-03-21T17:23:54;96095.75;;;13.40
73894;BMP280;62699;50.534;12.784;2023-03-21T17:28:55;96099.88;;;13.28
73894;BMP280;62699;50.534;12.784;2023-03-21T17:33:56;96097.78;;;13.21
73894;BMP280;62699;50.534;12.784;2023-03-21T17:38:57;96098.16;;;13.12
73894;BMP280;62699;50.534;12.784;2023-03-21T17:43:59;96099.06;;;13.01
73894;BMP280;62699;50.534;12.784;2023-03-21T17:48:59;96102.03;;;12.84
73894;BMP280;62699;50.534;12.784;2023-03-21T17:54:00;96100.06;;;12.66
73894;BMP280;62699;50.534;12.784;2023-03-21T17:59:04;96107.22;;;12.45
73894;BMP280;62699;50.534;12.784;2023-03-21T18:04:04;96114.84;;;12.22
73894;BMP280;62699;50.534;12.784;2023-03-21T18:09:07;96114.81;;;12.04
73894;BMP280;62699;50.534;12.784;2023-03-21T18:14:10;96109.53;;;11.92
73894;BMP280;62699;50.534;12.784;2023-03-21T18:19:11;96105.53;;;11.75
73894;BMP280;62699;50.534;12.784;2023-03-21T18:24:12;96111.78;;;11.64
73894;BMP280;62699;50.534;12.784;2023-03-21T18:29:13;96117.50;;;11.55
73894;BMP280;62699;50.534;12.784;2023-03-21T18:34:17;96116.63;;;11.41
73894;BMP280;62699;50.534;12.784;2023-03-21T18:39:17;96114.75;;;11.31
73894;BMP280;62699;50.534;12.784;2023-03-21T18:44:18;96120.44;;;11.22
73894;BMP280;62699;50.534;12.784;2023-03-21T18:49:18;96110.50;;;11.11
73894;BMP280;62699;50.534;12.784;2023-03-21T18:54:19;96113.22;;;11.06
73894;BMP280;62699;50.534;12.784;2023-03-21T18:59:20;96117.16;;;10.99
73894;BMP280;62699;50.534;12.784;2023-03-21T19:04:21;96116.00;;;10.94
73894;BMP280;62699;50.534;12.784;2023-03-21T19:09:23;96121.66;;;10.85
73894;BMP280;62699;50.534;12.784;2023-03-21T19:14:24;96126.59;;;10.81
73894;BMP280;62699;50.534;12.784;2023-03-21T19:19:25;96123.94;;;10.76
73894;BMP280;62699;50.534;12.784;2023-03-21T19:24:26;96117.09;;;10.69
73894;BMP280;62699;50.534;12.784;2023-03-21T19:29:27;96120.78;;;10.66
73894;BMP280;62699;50.534;12.784;2023-03-21T19:34:28;96107.84;;;10.65
73894;BMP280;62699;50.534;12.784;2023-03-21T19:39:28;96112.50;;;10.64
73894;BMP280;62699;50.534;12.784;2023-03-21T19:44:28;96115.91;;;10.59
73894;BMP280;62699;50.534;12.784;2023-03-21T19:49:29;96107.41;;;10.55
73894;BMP280;62699;50.534;12.784;2023-03-21T19:54:29;96104.69;;;10.55
73894;BMP280;62699;50.534;12.784;2023-03-21T19:59:31;96104.44;;;10.53
73894;BMP280;62699;50.534;12.784;2023-03-21T20:04:31;96101.28;;;10.54
73894;BMP280;62699;50.534;12.784;2023-03-21T20:09:32;96111.31;;;10.54
73894;BMP280;62699;50.534;12.784;2023-03-21T20:14:32;96109.59;;;10.51
73894;BMP280;62699;50.534;12.784;2023-03-21T20:19:32;96113.50;;;10.50
73894;BMP280;62699;50.534;12.784;2023-03-21T20:24:32;96114.97;;;10.51
73894;BMP280;62699;50.534;12.784;2023-03-21T20:29:38;96108.38;;;10.52
73894;BMP280;62699;50.534;12.784;2023-03-21T20:34:38;96114.53;;;10.47
73894;BMP280;62699;50.534;12.784;2023-03-21T20:39:39;96108.91;;;10.45
73894;BMP280;62699;50.534;12.784;2023-03-21T20:44:40;96108.19;;;10.39
73894;BMP280;62699;50.534;12.784;2023-03-21T20:49:41;96095.94;;;10.38
73894;BMP280;62699;50.534;12.784;2023-03-21T20:54:42;96098.63;;;10.38
73894;BMP280;62699;50.534;12.784;2023-03-21T20:59:43;96100.84;;;10.39
73894;BMP280;62699;50.534;12.784;2023-03-21T21:04:46;96102.06;;;10.38
73894;BMP280;62699;50.534;12.784;2023-03-21T21:09:48;96092.03;;;10.39
73894;BMP280;62699;50.534;12.784;2023-03-21T21:14:49;96102.81;;;10.39
73894;BMP280;62699;50.534;12.784;2023-03-21T21:19:49;96105.97;;;10.37
73894;BMP280;62699;50.534;12.784;2023-03-21T21:24:49;96097.19;;;10.37
73894;BMP280;62699;50.534;12.784;2023-03-21T21:29:50;96094.00;;;10.33
73894;BMP280;62699;50.534;12.784;2023-03-21T21:34:50;96092.06;;;10.28
73894;BMP280;62699;50.534;12.784;2023-03-21T21:39:51;96089.63;;;10.30
73894;BMP280;62699;50.534;12.784;2023-03-21T21:44:51;96094.28;;;10.29
73894;BMP280;62699;50.534;12.784;2023-03-21T21:49:52;96094.00;;;10.33
73894;BMP280;62699;50.534;12.784;2023-03-21T21:54:53;96095.47;;;10.34
73894;BMP280;62699;50.534;12.784;2023-03-21T21:59:53;96105.50;;;10.33
73894;BMP280;62699;50.534;12.784;2023-03-21T22:04:54;96101.84;;;10.31
73894;BMP280;62699;50.534;12.784;2023-03-21T22:09:55;96109.69;;;10.29
73894;BMP280;62699;50.534;12.784;2023-03-21T22:14:56;96107.78;;;10.24
73894;BMP280;62699;50.534;12.784;2023-03-21T22:19:56;96111.19;;;10.19
73894;BMP280;62699;50.534;12.784;2023-03-21T22:24:56;96097.03;;;10.13
73894;BMP280;62699;50.534;12.784;2023-03-21T22:29:56;96097.56;;;10.05
73894;BMP280;62699;50.534;12.784;2023-03-21T22:34:56;96109.75;;;10.01
73894;BMP280;62699;50.534;12.784;2023-03-21T22:39:57;96117.09;;;10.00
73894;BMP280;62699;50.534;12.784;2023-03-21T22:44:58;96101.69;;;10.01
73894;BMP280;62699;50.534;12.784;2023-03-21T22:49:58;96095.34;;;9.98
73894;BMP280;62699;50.534;12.784;2023-03-21T22:54:59;96094.84;;;10.00
73894;BMP280;62699;50.534;12.784;2023-03-21T23:00:00;96089.97;;;9.98
73894;BMP280;62699;50.534;12.784;2023-03-21T23:05:02;96073.59;;;9.96
73894;BMP280;62699;50.534;12.784;2023-03-21T23:10:05;96084.59;;;9.98
73894;BMP280;62699;50.534;12.784;2023-03-21T23:15:07;96082.66;;;9.99
73894;BMP280;62699;50.534;12.784;2023-03-21T23:20:07;96078.25;;;9.96
73894;BMP280;62699;50.534;12.784;2023-03-21T23:25:10;96087.03;;;9.91
73894;BMP280;62699;50.534;12.784;2023-03-21T23:30:13;96090.25;;;9.89
73894;BMP280;62699;50.534;12.784;2023-03-21T23:35:13;96086.09;;;9.88
73894;BMP280;62699;50.534;12.784;2023-03-21T23:40:14;96085.13;;;9.86
73894;BMP280;62699;50.534;12.784;2023-03-21T23:45:14;96082.66;;;9.77
73894;BMP280;62699;50.534;12.784;2023-03-21T23:50:15;96080.75;;;9.72
73894;BMP280;62699;50.534;12.784;2023-03-21T23:55:15;96085.41;;;9.60
